sensor_id;sensor_type;location;lat;lon;timestamp;P1;durP1;ratioP1;P2;durP2;ratioP2
62788;SDS011;66401;42.016;21.454;2023-01-20T00:01:07;7.23;;;2.70;;
62788;SDS011;66401;42.016;21.454;2023-01-20T00:03:34;16.37;;;3.80;;
62788;SDS011;66401;42.016;21.454;2023-01-20T00:06:00;7.63;;;2.93;;
62788;SDS011;66401;42.016;21.454;2023-01-20T00:08:26;9.90;;;2.60;;
62788;SDS011;66401;42.016;21.454;2023-01-20T00:10:51;12.07;;;3.60;;
62788;SDS011;66401;42.016;21.454;2023-01-20T00:13:17;11.27;;;3.30;;
62788;SDS011;66401;42.016;21.454;2023-01-20T00:15:42;13.37;;;3.13;;
62788;SDS011;66401;42.016;21.454;2023-01-20T00:18:08;7.13;;;2.30;;
62788;SDS011;66401;42.016;21.454;2023-01-20T00:20:33;7.70;;;2.23;;
62788;SDS011;66401;42.016;21.454;2023-01-20T00:22:59;6.13;;;2.20;;
62788;SDS011;66401;42.016;21.454;2023-01-20T00:25:24;3.87;;;1.83;;
62788;SDS011;66401;42.016;21.454;2023-01-20T00:27:50;5.73;;;2.23;;
62788;SDS011;66401;42.016;21.454;2023-01-20T00:30:19;9.97;;;2.40;;
62788;SDS011;66401;42.016;21.454;2023-01-20T00:32:45;6.40;;;1.90;;
62788;SDS011;66401;42.016;21.454;2023-01-20T00:35:10;9.17;;;2.33;;
62788;SDS011;66401;42.016;21.454;2023-01-20T00:37:36;5.10;;;2.10;;
62788;SDS011;66401;42.016;21.454;2023-01-20T00:40:02;5.33;;;2.60;;
62788;SDS011;66401;42.016;21.454;2023-01-20T00:42:29;7.83;;;2.00;;
62788;SDS011;66401;42.016;21.454;2023-01-20T00:44:54;2.10;;;1.27;;
62788;SDS011;66401;42.016;21.454;2023-01-20T00:47:20;4.00;;;1.60;;
62788;SDS011;66401;42.016;21.454;2023-01-20T00:49:46;4.43;;;1.80;;
62788;SDS011;66401;42.016;21.454;2023-01-20T00:52:12;4.77;;;1.90;;
62788;SDS011;66401;42.016;21.454;2023-01-20T00:54:38;5.27;;;1.30;;
62788;SDS011;66401;42.016;21.454;2023-01-20T00:57:04;2.73;;;0.77;;
62788;SDS011;66401;42.016;21.454;2023-01-20T00:59:29;5.20;;;2.20;;
62788;SDS011;66401;42.016;21.454;2023-01-20T01:01:55;6.67;;;2.93;;
62788;SDS011;66401;42.016;21.454;2023-01-20T01:04:23;7.23;;;2.87;;
62788;SDS011;66401;42.016;21.454;2023-01-20T01:06:48;5.37;;;2.57;;
62788;SDS011;66401;42.016;21.454;2023-01-20T01:09:14;5.43;;;2.20;;
62788;SDS011;66401;42.016;21.454;2023-01-20T01:11:40;4.40;;;2.03;;
62788;SDS011;66401;42.016;21.454;2023-01-20T01:14:06;4.77;;;1.67;;
62788;SDS011;66401;42.016;21.454;2023-01-20T01:16:31;4.87;;;2.10;;
62788;SDS011;66401;42.016;21.454;2023-01-20T01:18:57;5.77;;;1.80;;
62788;SDS011;66401;42.016;21.454;2023-01-20T01:21:22;6.07;;;1.43;;
62788;SDS011;66401;42.016;21.454;2023-01-20T01:23:48;4.50;;;1.70;;
62788;SDS011;66401;42.016;21.454;2023-01-20T01:26:15;3.57;;;1.70;;
62788;SDS011;66401;42.016;21.454;2023-01-20T01:28:41;5.53;;;1.13;;
62788;SDS011;66401;42.016;21.454;2023-01-20T01:31:07;3.93;;;1.60;;
62788;SDS011;66401;42.016;21.454;2023-01-20T01:33:34;4.77;;;1.73;;
62788;SDS011;66401;42.016;21.454;2023-01-20T01:36:01;6.50;;;1.80;;
62788;SDS011;66401;42.016;21.454;2023-01-20T01:38:28;6.80;;;2.13;;
62788;SDS011;66401;42.016;21.454;2023-01-20T01:40:53;6.50;;;1.70;;
62788;SDS011;66401;42.016;21.454;2023-01-20T01:43:21;3.43;;;1.50;;
62788;SDS011;66401;42.016;21.454;2023-01-20T01:45:49;3.57;;;1.67;;
62788;SDS011;66401;42.016;21.454;2023-01-20T01:48:14;4.10;;;2.17;;
62788;SDS011;66401;42.016;21.454;2023-01-20T01:50:43;4.00;;;1.70;;
62788;SDS011;66401;42.016;21.454;2023-01-20T01:53:14;5.10;;;1.83;;
62788;SDS011;66401;42.016;21.454;2023-01-20T01:55:45;4.20;;;1.77;;
62788;SDS011;66401;42.016;21.454;2023-01-20T01:58:16;7.10;;;2.10;;
62788;SDS011;66401;42.016;21.454;2023-01-20T02:00:46;6.97;;;2.57;;
62788;SDS011;66401;42.016;21.454;2023-01-20T02:03:12;4.77;;;2.33;;
62788;SDS011;66401;42.016;21.454;2023-01-20T02:05:38;4.07;;;3.07;;
62788;SDS011;66401;42.016;21.454;2023-01-20T02:08:06;7.47;;;3.10;;
62788;SDS011;66401;42.016;21.454;2023-01-20T02:10:32;8.20;;;3.00;;
62788;SDS011;66401;42.016;21.454;2023-01-20T02:12:58;7.20;;;2.90;;
62788;SDS011;66401;42.016;21.454;2023-01-20T02:15:25;3.87;;;2.60;;
62788;SDS011;66401;42.016;21.454;2023-01-20T02:34:35;14.17;;;9.10;;
62788;SDS011;66401;42.016;21.454;2023-01-20T02:37:12;14.97;;;7.67;;
62788;SDS011;66401;42.016;21.454;2023-01-20T02:42:40;10.37;;;6.10;;
62788;SDS011;66401;42.016;21.454;2023-01-20T02:45:17;2.93;;;2.43;;
62788;SDS011;66401;42.016;21.454;2023-01-20T02:50:38;9.13;;;3.53;;
62788;SDS011;66401;42.016;21.454;2023-01-20T02:53:20;5.23;;;3.60;;
62788;SDS011;66401;42.016;21.454;2023-01-20T02:55:49;16.40;;;5.43;;
62788;SDS011;66401;42.016;21.454;2023-01-20T03:01:04;12.83;;;4.30;;
62788;SDS011;66401;42.016;21.454;2023-01-20T03:03:35;7.63;;;3.30;;
62788;SDS011;66401;42.016;21.454;2023-01-20T03:06:07;5.43;;;2.67;;
62788;SDS011;66401;42.016;21.454;2023-01-20T03:08:47;10.07;;;3.77;;
62788;SDS011;66401;42.016;21.454;2023-01-20T03:11:16;7.90;;;3.53;;
62788;SDS011;66401;42.016;21.454;2023-01-20T03:13:51;4.87;;;3.43;;
62788;SDS011;66401;42.016;21.454;2023-01-20T03:16:23;11.03;;;3.83;;
62788;SDS011;66401;42.016;21.454;2023-01-20T03:18:50;12.20;;;4.33;;
62788;SDS011;66401;42.016;21.454;2023-01-20T03:21:16;17.40;;;5.03;;
62788;SDS011;66401;42.016;21.454;2023-01-20T03:23:47;17.27;;;6.63;;
62788;SDS011;66401;42.016;21.454;2023-01-20T03:26:17;15.77;;;6.60;;
62788;SDS011;66401;42.016;21.454;2023-01-20T03:28:44;13.43;;;6.33;;
62788;SDS011;66401;42.016;21.454;2023-01-20T03:33:52;14.10;;;7.43;;
62788;SDS011;66401;42.016;21.454;2023-01-20T03:36:20;18.20;;;6.10;;
62788;SDS011;66401;42.016;21.454;2023-01-20T03:38:48;16.33;;;5.07;;
62788;SDS011;66401;42.016;21.454;2023-01-20T03:42:01;10.90;;;5.30;;
62788;SDS011;66401;42.016;21.454;2023-01-20T03:45:00;10.17;;;4.47;;
62788;SDS011;66401;42.016;21.454;2023-01-20T03:55:36;3.73;;;2.23;;
62788;SDS011;66401;42.016;21.454;2023-01-20T03:58:28;3.47;;;1.97;;
62788;SDS011;66401;42.016;21.454;2023-01-20T04:00:56;4.13;;;2.30;;
62788;SDS011;66401;42.016;21.454;2023-01-20T04:03:32;4.87;;;2.53;;
62788;SDS011;66401;42.016;21.454;2023-01-20T04:06:03;6.07;;;1.97;;
62788;SDS011;66401;42.016;21.454;2023-01-20T04:08:35;4.40;;;2.10;;
62788;SDS011;66401;42.016;21.454;2023-01-20T04:11:04;2.27;;;1.47;;
62788;SDS011;66401;42.016;21.454;2023-01-20T04:13:32;4.57;;;1.80;;
62788;SDS011;66401;42.016;21.454;2023-01-20T04:15:58;1.67;;;1.23;;
62788;SDS011;66401;42.016;21.454;2023-01-20T04:18:26;1.57;;;1.47;;
62788;SDS011;66401;42.016;21.454;2023-01-20T04:20:52;2.70;;;1.20;;
62788;SDS011;66401;42.016;21.454;2023-01-20T04:23:23;1.40;;;1.30;;
62788;SDS011;66401;42.016;21.454;2023-01-20T04:25:53;2.73;;;1.17;;
62788;SDS011;66401;42.016;21.454;2023-01-20T04:28:19;2.97;;;1.40;;
62788;SDS011;66401;42.016;21.454;2023-01-20T04:30:44;1.73;;;1.63;;
62788;SDS011;66401;42.016;21.454;2023-01-20T04:33:10;5.30;;;3.60;;
62788;SDS011;66401;42.016;21.454;2023-01-20T04:35:35;7.07;;;2.80;;
62788;SDS011;66401;42.016;21.454;2023-01-20T04:38:01;5.40;;;3.20;;
62788;SDS011;66401;42.016;21.454;2023-01-20T04:40:26;5.10;;;3.30;;
62788;SDS011;66401;42.016;21.454;2023-01-20T04:42:52;3.90;;;3.50;;
62788;SDS011;66401;42.016;21.454;2023-01-20T04:45:17;5.17;;;3.53;;
62788;SDS011;66401;42.016;21.454;2023-01-20T04:47:43;5.63;;;3.20;;
62788;SDS011;66401;42.016;21.454;2023-01-20T04:50:09;4.53;;;3.53;;
62788;SDS011;66401;42.016;21.454;2023-01-20T04:52:36;4.00;;;3.70;;
62788;SDS011;66401;42.016;21.454;2023-01-20T04:55:02;5.37;;;3.30;;
62788;SDS011;66401;42.016;21.454;2023-01-20T04:57:28;8.47;;;3.77;;
62788;SDS011;66401;42.016;21.454;2023-01-20T04:59:53;3.80;;;3.50;;
62788;SDS011;66401;42.016;21.454;2023-01-20T05:02:19;4.47;;;4.00;;
62788;SDS011;66401;42.016;21.454;2023-01-20T05:04:44;5.83;;;3.90;;
62788;SDS011;66401;42.016;21.454;2023-01-20T05:07:10;5.23;;;4.13;;
62788;SDS011;66401;42.016;21.454;2023-01-20T05:09:36;6.60;;;4.37;;
62788;SDS011;66401;42.016;21.454;2023-01-20T05:12:01;8.20;;;4.30;;
62788;SDS011;66401;42.016;21.454;2023-01-20T05:14:27;5.07;;;4.20;;
62788;SDS011;66401;42.016;21.454;2023-01-20T05:16:53;5.70;;;3.90;;
62788;SDS011;66401;42.016;21.454;2023-01-20T05:19:19;6.33;;;4.63;;
62788;SDS011;66401;42.016;21.454;2023-01-20T05:21:44;11.90;;;6.53;;
62788;SDS011;66401;42.016;21.454;2023-01-20T05:24:10;11.10;;;6.17;;
62788;SDS011;66401;42.016;21.454;2023-01-20T05:26:35;13.67;;;7.43;;
62788;SDS011;66401;42.016;21.454;2023-01-20T05:29:01;15.37;;;6.37;;
62788;SDS011;66401;42.016;21.454;2023-01-20T05:31:27;9.87;;;5.87;;
62788;SDS011;66401;42.016;21.454;2023-01-20T05:33:53;16.43;;;7.47;;
62788;SDS011;66401;42.016;21.454;2023-01-20T05:36:19;16.20;;;7.73;;
62788;SDS011;66401;42.016;21.454;2023-01-20T05:38:44;14.47;;;7.37;;
62788;SDS011;66401;42.016;21.454;2023-01-20T05:41:10;13.87;;;7.90;;
62788;SDS011;66401;42.016;21.454;2023-01-20T05:43:36;18.13;;;10.73;;
62788;SDS011;66401;42.016;21.454;2023-01-20T05:46:01;17.87;;;10.77;;
62788;SDS011;66401;42.016;21.454;2023-01-20T05:48:27;15.80;;;9.73;;
62788;SDS011;66401;42.016;21.454;2023-01-20T05:51:09;17.90;;;9.63;;
62788;SDS011;66401;42.016;21.454;2023-01-20T05:53:34;12.57;;;7.37;;
62788;SDS011;66401;42.016;21.454;2023-01-20T05:56:00;8.63;;;5.37;;
62788;SDS011;66401;42.016;21.454;2023-01-20T05:58:27;10.17;;;5.60;;
62788;SDS011;66401;42.016;21.454;2023-01-20T06:00:53;7.27;;;4.53;;
62788;SDS011;66401;42.016;21.454;2023-01-20T06:03:19;6.70;;;5.00;;
62788;SDS011;66401;42.016;21.454;2023-01-20T06:05:44;6.73;;;4.80;;
62788;SDS011;66401;42.016;21.454;2023-01-20T06:08:13;5.30;;;3.57;;
62788;SDS011;66401;42.016;21.454;2023-01-20T06:10:38;7.73;;;4.00;;
62788;SDS011;66401;42.016;21.454;2023-01-20T06:13:04;5.30;;;3.80;;
62788;SDS011;66401;42.016;21.454;2023-01-20T06:15:30;4.27;;;3.20;;
62788;SDS011;66401;42.016;21.454;2023-01-20T06:17:56;6.37;;;2.97;;
62788;SDS011;66401;42.016;21.454;2023-01-20T06:20:22;5.63;;;2.93;;
62788;SDS011;66401;42.016;21.454;2023-01-20T06:22:47;4.33;;;2.53;;
62788;SDS011;66401;42.016;21.454;2023-01-20T06:25:12;2.50;;;2.30;;
62788;SDS011;66401;42.016;21.454;2023-01-20T06:27:38;5.40;;;3.03;;
62788;SDS011;66401;42.016;21.454;2023-01-20T06:30:04;4.30;;;2.90;;
62788;SDS011;66401;42.016;21.454;2023-01-20T06:32:30;3.17;;;2.53;;
62788;SDS011;66401;42.016;21.454;2023-01-20T06:34:56;5.27;;;2.37;;
62788;SDS011;66401;42.016;21.454;2023-01-20T06:37:21;3.10;;;2.80;;
62788;SDS011;66401;42.016;21.454;2023-01-20T06:39:47;4.83;;;2.80;;
62788;SDS011;66401;42.016;21.454;2023-01-20T06:42:13;5.20;;;2.40;;
62788;SDS011;66401;42.016;21.454;2023-01-20T06:44:39;4.93;;;2.83;;
62788;SDS011;66401;42.016;21.454;2023-01-20T06:47:04;4.37;;;3.10;;
62788;SDS011;66401;42.016;21.454;2023-01-20T06:49:30;7.33;;;5.07;;
62788;SDS011;66401;42.016;21.454;2023-01-20T06:51:57;11.80;;;7.17;;
62788;SDS011;66401;42.016;21.454;2023-01-20T06:54:23;18.70;;;9.00;;
62788;SDS011;66401;42.016;21.454;2023-01-20T06:56:49;18.13;;;9.60;;
62788;SDS011;66401;42.016;21.454;2023-01-20T06:59:15;14.13;;;8.23;;
62788;SDS011;66401;42.016;21.454;2023-01-20T07:01:40;15.23;;;9.23;;
62788;SDS011;66401;42.016;21.454;2023-01-20T07:04:06;12.63;;;8.97;;
62788;SDS011;66401;42.016;21.454;2023-01-20T07:06:33;19.77;;;9.73;;
62788;SDS011;66401;42.016;21.454;2023-01-20T07:09:02;14.50;;;9.47;;
62788;SDS011;66401;42.016;21.454;2023-01-20T07:11:29;18.50;;;10.10;;
62788;SDS011;66401;42.016;21.454;2023-01-20T07:13:59;16.37;;;9.63;;
62788;SDS011;66401;42.016;21.454;2023-01-20T07:16:25;18.67;;;10.37;;
62788;SDS011;66401;42.016;21.454;2023-01-20T07:18:50;22.67;;;10.77;;
62788;SDS011;66401;42.016;21.454;2023-01-20T07:21:17;15.37;;;8.93;;
62788;SDS011;66401;42.016;21.454;2023-01-20T07:23:43;22.20;;;11.23;;
62788;SDS011;66401;42.016;21.454;2023-01-20T07:26:10;16.47;;;10.03;;
62788;SDS011;66401;42.016;21.454;2023-01-20T07:28:37;15.90;;;10.50;;
62788;SDS011;66401;42.016;21.454;2023-01-20T07:31:04;17.93;;;11.10;;
62788;SDS011;66401;42.016;21.454;2023-01-20T07:33:31;22.43;;;11.97;;
62788;SDS011;66401;42.016;21.454;2023-01-20T07:35:57;14.80;;;10.20;;
62788;SDS011;66401;42.016;21.454;2023-01-20T07:38:23;19.00;;;11.27;;
62788;SDS011;66401;42.016;21.454;2023-01-20T07:40:49;22.23;;;11.57;;
62788;SDS011;66401;42.016;21.454;2023-01-20T07:43:14;18.47;;;11.47;;
62788;SDS011;66401;42.016;21.454;2023-01-20T07:45:40;20.87;;;11.83;;
62788;SDS011;66401;42.016;21.454;2023-01-20T07:48:05;18.03;;;11.30;;
62788;SDS011;66401;42.016;21.454;2023-01-20T07:50:32;22.33;;;11.27;;
62788;SDS011;66401;42.016;21.454;2023-01-20T07:53:02;19.47;;;10.73;;
62788;SDS011;66401;42.016;21.454;2023-01-20T07:55:28;15.30;;;10.03;;
62788;SDS011;66401;42.016;21.454;2023-01-20T07:57:53;15.47;;;11.53;;
62788;SDS011;66401;42.016;21.454;2023-01-20T08:00:20;24.43;;;13.57;;
62788;SDS011;66401;42.016;21.454;2023-01-20T08:02:46;19.97;;;11.67;;
62788;SDS011;66401;42.016;21.454;2023-01-20T08:05:11;16.37;;;11.10;;
62788;SDS011;66401;42.016;21.454;2023-01-20T08:07:37;20.20;;;11.17;;
62788;SDS011;66401;42.016;21.454;2023-01-20T08:10:02;18.97;;;12.63;;
62788;SDS011;66401;42.016;21.454;2023-01-20T08:12:28;16.73;;;10.87;;
62788;SDS011;66401;42.016;21.454;2023-01-20T08:14:54;19.27;;;10.97;;
62788;SDS011;66401;42.016;21.454;2023-01-20T08:17:20;15.53;;;9.93;;
62788;SDS011;66401;42.016;21.454;2023-01-20T08:19:45;12.50;;;9.23;;
62788;SDS011;66401;42.016;21.454;2023-01-20T08:22:11;12.73;;;8.30;;
62788;SDS011;66401;42.016;21.454;2023-01-20T08:24:36;12.20;;;10.00;;
62788;SDS011;66401;42.016;21.454;2023-01-20T08:27:03;15.37;;;9.10;;
62788;SDS011;66401;42.016;21.454;2023-01-20T08:29:29;17.17;;;10.57;;
62788;SDS011;66401;42.016;21.454;2023-01-20T08:31:59;19.87;;;11.40;;
62788;SDS011;66401;42.016;21.454;2023-01-20T08:34:25;16.27;;;12.00;;
62788;SDS011;66401;42.016;21.454;2023-01-20T08:36:51;15.77;;;11.67;;
62788;SDS011;66401;42.016;21.454;2023-01-20T08:39:18;19.27;;;11.80;;
62788;SDS011;66401;42.016;21.454;2023-01-20T08:41:45;18.97;;;11.67;;
62788;SDS011;66401;42.016;21.454;2023-01-20T08:44:12;16.20;;;11.50;;
62788;SDS011;66401;42.016;21.454;2023-01-20T08:46:39;18.60;;;12.47;;
62788;SDS011;66401;42.016;21.454;2023-01-20T08:49:06;17.03;;;11.87;;
62788;SDS011;66401;42.016;21.454;2023-01-20T08:51:32;14.90;;;10.13;;
62788;SDS011;66401;42.016;21.454;2023-01-20T08:53:58;17.60;;;10.37;;
62788;SDS011;66401;42.016;21.454;2023-01-20T08:56:25;16.07;;;10.37;;
62788;SDS011;66401;42.016;21.454;2023-01-20T08:58:51;13.23;;;9.70;;
62788;SDS011;66401;42.016;21.454;2023-01-20T09:01:19;13.47;;;10.00;;
62788;SDS011;66401;42.016;21.454;2023-01-20T09:03:46;14.97;;;9.83;;
62788;SDS011;66401;42.016;21.454;2023-01-20T09:06:12;17.43;;;9.97;;
62788;SDS011;66401;42.016;21.454;2023-01-20T09:08:38;12.27;;;9.77;;
62788;SDS011;66401;42.016;21.454;2023-01-20T09:11:15;12.33;;;8.97;;
62788;SDS011;66401;42.016;21.454;2023-01-20T09:13:43;15.40;;;9.03;;
62788;SDS011;66401;42.016;21.454;2023-01-20T09:16:12;12.30;;;8.53;;
62788;SDS011;66401;42.016;21.454;2023-01-20T09:18:40;10.97;;;8.50;;
62788;SDS011;66401;42.016;21.454;2023-01-20T09:21:06;10.50;;;7.13;;
62788;SDS011;66401;42.016;21.454;2023-01-20T09:23:36;9.73;;;6.87;;
62788;SDS011;66401;42.016;21.454;2023-01-20T09:26:05;8.47;;;6.33;;
62788;SDS011;66401;42.016;21.454;2023-01-20T09:28:32;11.93;;;8.30;;
62788;SDS011;66401;42.016;21.454;2023-01-20T09:31:02;12.80;;;9.30;;
62788;SDS011;66401;42.016;21.454;2023-01-20T09:33:30;13.50;;;9.00;;
62788;SDS011;66401;42.016;21.454;2023-01-20T09:35:56;12.43;;;9.33;;
62788;SDS011;66401;42.016;21.454;2023-01-20T09:38:23;12.67;;;9.17;;
62788;SDS011;66401;42.016;21.454;2023-01-20T09:46:49;13.17;;;9.70;;
62788;SDS011;66401;42.016;21.454;2023-01-20T09:52:41;11.30;;;8.90;;
62788;SDS011;66401;42.016;21.454;2023-01-20T10:01:20;13.03;;;10.00;;
62788;SDS011;66401;42.016;21.454;2023-01-20T10:06:31;12.27;;;8.03;;
62788;SDS011;66401;42.016;21.454;2023-01-20T10:11:35;9.57;;;7.07;;
62788;SDS011;66401;42.016;21.454;2023-01-20T10:19:13;7.57;;;5.67;;
62788;SDS011;66401;42.016;21.454;2023-01-20T10:21:53;7.13;;;5.10;;
62788;SDS011;66401;42.016;21.454;2023-01-20T10:24:27;5.17;;;4.43;;
62788;SDS011;66401;42.016;21.454;2023-01-20T10:27:00;4.20;;;3.70;;
62788;SDS011;66401;42.016;21.454;2023-01-20T10:31:59;4.13;;;3.33;;
62788;SDS011;66401;42.016;21.454;2023-01-20T10:34:35;3.00;;;2.80;;
62788;SDS011;66401;42.016;21.454;2023-01-20T10:37:07;2.77;;;2.57;;
62788;SDS011;66401;42.016;21.454;2023-01-20T10:42:10;5.77;;;4.40;;
62788;SDS011;66401;42.016;21.454;2023-01-20T10:44:38;2.70;;;2.50;;
62788;SDS011;66401;42.016;21.454;2023-01-20T10:47:11;3.10;;;2.80;;
62788;SDS011;66401;42.016;21.454;2023-01-20T11:00:47;2.43;;;1.40;;
62788;SDS011;66401;42.016;21.454;2023-01-20T11:03:15;1.70;;;1.60;;
62788;SDS011;66401;42.016;21.454;2023-01-20T11:05:46;2.10;;;1.50;;
62788;SDS011;66401;42.016;21.454;2023-01-20T11:08:14;5.93;;;1.63;;
62788;SDS011;66401;42.016;21.454;2023-01-20T11:10:46;3.23;;;2.10;;
62788;SDS011;66401;42.016;21.454;2023-01-20T11:13:15;4.20;;;2.03;;
62788;SDS011;66401;42.016;21.454;2023-01-20T11:15:45;2.67;;;2.00;;
62788;SDS011;66401;42.016;21.454;2023-01-20T11:20:44;2.40;;;1.80;;
62788;SDS011;66401;42.016;21.454;2023-01-20T11:23:31;1.97;;;1.80;;
62788;SDS011;66401;42.016;21.454;2023-01-20T11:26:18;1.60;;;1.50;;
62788;SDS011;66401;42.016;21.454;2023-01-20T11:28:51;2.33;;;1.57;;
62788;SDS011;66401;42.016;21.454;2023-01-20T11:34:15;1.73;;;1.07;;
62788;SDS011;66401;42.016;21.454;2023-01-20T11:36:43;1.70;;;1.60;;
62788;SDS011;66401;42.016;21.454;2023-01-20T11:39:22;6.87;;;1.80;;
62788;SDS011;66401;42.016;21.454;2023-01-20T11:44:46;3.40;;;1.80;;
62788;SDS011;66401;42.016;21.454;2023-01-20T11:52:29;2.23;;;1.17;;
62788;SDS011;66401;42.016;21.454;2023-01-20T11:55:11;2.10;;;1.57;;
62788;SDS011;66401;42.016;21.454;2023-01-20T11:57:55;1.70;;;1.20;;
62788;SDS011;66401;42.016;21.454;2023-01-20T12:05:36;2.37;;;1.30;;
62788;SDS011;66401;42.016;21.454;2023-01-20T12:11:19;3.37;;;2.03;;
62788;SDS011;66401;42.016;21.454;2023-01-20T12:17:32;2.73;;;2.10;;
62788;SDS011;66401;42.016;21.454;2023-01-20T12:26:14;2.40;;;2.03;;
62788;SDS011;66401;42.016;21.454;2023-01-20T12:31:13;5.03;;;2.53;;
62788;SDS011;66401;42.016;21.454;2023-01-20T12:33:45;3.43;;;1.67;;
62788;SDS011;66401;42.016;21.454;2023-01-20T12:41:47;4.07;;;2.20;;
62788;SDS011;66401;42.016;21.454;2023-01-20T12:46:50;5.20;;;2.17;;
62788;SDS011;66401;42.016;21.454;2023-01-20T12:49:34;2.90;;;2.20;;
62788;SDS011;66401;42.016;21.454;2023-01-20T12:54:51;3.80;;;2.10;;
62788;SDS011;66401;42.016;21.454;2023-01-20T13:09:23;3.63;;;2.00;;
62788;SDS011;66401;42.016;21.454;2023-01-20T13:14:50;2.30;;;2.00;;
62788;SDS011;66401;42.016;21.454;2023-01-20T13:17:39;3.77;;;2.33;;
62788;SDS011;66401;42.016;21.454;2023-01-20T13:20:22;2.73;;;2.00;;
62788;SDS011;66401;42.016;21.454;2023-01-20T13:22:52;2.33;;;2.00;;
62788;SDS011;66401;42.016;21.454;2023-01-20T13:25:20;2.43;;;1.73;;
62788;SDS011;66401;42.016;21.454;2023-01-20T13:27:46;2.23;;;1.90;;
62788;SDS011;66401;42.016;21.454;2023-01-20T13:33:04;5.30;;;2.60;;
62788;SDS011;66401;42.016;21.454;2023-01-20T13:35:46;3.17;;;2.50;;
62788;SDS011;66401;42.016;21.454;2023-01-20T13:40:46;2.90;;;2.27;;
62788;SDS011;66401;42.016;21.454;2023-01-20T13:48:27;2.60;;;2.40;;
62788;SDS011;66401;42.016;21.454;2023-01-20T13:50:53;3.23;;;1.90;;
62788;SDS011;66401;42.016;21.454;2023-01-20T14:00:47;3.57;;;1.90;;
62788;SDS011;66401;42.016;21.454;2023-01-20T14:05:50;2.33;;;1.80;;
62788;SDS011;66401;42.016;21.454;2023-01-20T14:08:18;2.20;;;2.00;;
62788;SDS011;66401;42.016;21.454;2023-01-20T14:10:45;3.03;;;2.03;;
62788;SDS011;66401;42.016;21.454;2023-01-20T14:13:11;2.87;;;2.57;;
62788;SDS011;66401;42.016;21.454;2023-01-20T14:15:50;2.77;;;2.17;;
62788;SDS011;66401;42.016;21.454;2023-01-20T14:18:18;4.37;;;2.60;;
62788;SDS011;66401;42.016;21.454;2023-01-20T14:20:55;6.87;;;3.13;;
62788;SDS011;66401;42.016;21.454;2023-01-20T14:25:58;3.47;;;2.80;;
62788;SDS011;66401;42.016;21.454;2023-01-20T14:28:29;6.37;;;3.00;;
62788;SDS011;66401;42.016;21.454;2023-01-20T14:31:11;3.20;;;2.67;;
62788;SDS011;66401;42.016;21.454;2023-01-20T14:33:43;3.60;;;3.00;;
62788;SDS011;66401;42.016;21.454;2023-01-20T14:36:12;4.30;;;2.70;;
62788;SDS011;66401;42.016;21.454;2023-01-20T14:38:40;4.23;;;3.07;;
62788;SDS011;66401;42.016;21.454;2023-01-20T14:41:21;3.10;;;2.80;;
62788;SDS011;66401;42.016;21.454;2023-01-20T14:43:51;3.07;;;2.83;;
62788;SDS011;66401;42.016;21.454;2023-01-20T14:46:16;3.97;;;3.00;;
62788;SDS011;66401;42.016;21.454;2023-01-20T14:48:43;4.10;;;3.03;;
62788;SDS011;66401;42.016;21.454;2023-01-20T14:51:09;3.43;;;2.60;;
62788;SDS011;66401;42.016;21.454;2023-01-20T14:53:35;3.77;;;2.90;;
62788;SDS011;66401;42.016;21.454;2023-01-20T14:56:01;4.70;;;2.87;;
62788;SDS011;66401;42.016;21.454;2023-01-20T14:58:28;2.90;;;2.50;;
62788;SDS011;66401;42.016;21.454;2023-01-20T15:00:57;4.07;;;2.83;;
62788;SDS011;66401;42.016;21.454;2023-01-20T15:03:29;3.27;;;2.27;;
62788;SDS011;66401;42.016;21.454;2023-01-20T15:05:59;4.53;;;2.90;;
62788;SDS011;66401;42.016;21.454;2023-01-20T15:14:29;4.10;;;3.23;;
62788;SDS011;66401;42.016;21.454;2023-01-20T15:26:39;4.17;;;2.70;;
62788;SDS011;66401;42.016;21.454;2023-01-20T15:29:21;5.37;;;3.30;;
62788;SDS011;66401;42.016;21.454;2023-01-20T15:31:52;3.90;;;3.30;;
62788;SDS011;66401;42.016;21.454;2023-01-20T15:34:20;3.20;;;3.00;;
62788;SDS011;66401;42.016;21.454;2023-01-20T15:36:46;4.00;;;3.20;;
62788;SDS011;66401;42.016;21.454;2023-01-20T15:39:17;4.17;;;3.77;;
62788;SDS011;66401;42.016;21.454;2023-01-20T15:41:43;6.43;;;3.30;;
62788;SDS011;66401;42.016;21.454;2023-01-20T15:44:10;7.23;;;4.93;;
62788;SDS011;66401;42.016;21.454;2023-01-20T15:46:36;6.87;;;4.93;;
62788;SDS011;66401;42.016;21.454;2023-01-20T15:49:08;6.47;;;5.00;;
62788;SDS011;66401;42.016;21.454;2023-01-20T15:51:35;4.77;;;4.23;;
62788;SDS011;66401;42.016;21.454;2023-01-20T15:54:01;5.30;;;4.47;;
62788;SDS011;66401;42.016;21.454;2023-01-20T15:56:28;7.30;;;4.43;;
62788;SDS011;66401;42.016;21.454;2023-01-20T15:58:54;4.97;;;3.60;;
62788;SDS011;66401;42.016;21.454;2023-01-20T16:01:22;5.73;;;3.57;;
62788;SDS011;66401;42.016;21.454;2023-01-20T16:03:49;4.77;;;4.23;;
62788;SDS011;66401;42.016;21.454;2023-01-20T16:06:16;5.53;;;4.10;;
62788;SDS011;66401;42.016;21.454;2023-01-20T16:08:44;4.83;;;3.90;;
62788;SDS011;66401;42.016;21.454;2023-01-20T16:11:11;7.47;;;4.50;;
62788;SDS011;66401;42.016;21.454;2023-01-20T16:13:38;9.23;;;4.73;;
62788;SDS011;66401;42.016;21.454;2023-01-20T16:16:04;6.67;;;4.73;;
62788;SDS011;66401;42.016;21.454;2023-01-20T16:18:45;8.53;;;4.50;;
62788;SDS011;66401;42.016;21.454;2023-01-20T16:21:11;8.07;;;4.50;;
62788;SDS011;66401;42.016;21.454;2023-01-20T16:23:37;6.53;;;4.57;;
62788;SDS011;66401;42.016;21.454;2023-01-20T16:26:19;4.80;;;4.20;;
62788;SDS011;66401;42.016;21.454;2023-01-20T16:28:47;4.93;;;4.00;;
62788;SDS011;66401;42.016;21.454;2023-01-20T16:31:14;8.57;;;3.97;;
62788;SDS011;66401;42.016;21.454;2023-01-20T16:33:40;6.90;;;4.53;;
62788;SDS011;66401;42.016;21.454;2023-01-20T16:36:09;13.73;;;4.33;;
62788;SDS011;66401;42.016;21.454;2023-01-20T16:38:37;5.37;;;4.50;;
62788;SDS011;66401;42.016;21.454;2023-01-20T16:41:04;6.33;;;4.73;;
62788;SDS011;66401;42.016;21.454;2023-01-20T16:43:38;9.97;;;5.07;;
62788;SDS011;66401;42.016;21.454;2023-01-20T16:48:40;8.97;;;5.03;;
62788;SDS011;66401;42.016;21.454;2023-01-20T16:51:05;8.60;;;5.43;;
62788;SDS011;66401;42.016;21.454;2023-01-20T16:53:31;9.47;;;5.13;;
62788;SDS011;66401;42.016;21.454;2023-01-20T16:55:57;7.97;;;5.50;;
62788;SDS011;66401;42.016;21.454;2023-01-20T16:58:23;11.07;;;5.73;;
62788;SDS011;66401;42.016;21.454;2023-01-20T17:00:48;8.90;;;6.33;;
62788;SDS011;66401;42.016;21.454;2023-01-20T17:03:14;10.00;;;6.30;;
62788;SDS011;66401;42.016;21.454;2023-01-20T17:05:39;9.87;;;6.60;;
62788;SDS011;66401;42.016;21.454;2023-01-20T17:08:05;11.10;;;6.53;;
62788;SDS011;66401;42.016;21.454;2023-01-20T17:10:31;7.90;;;6.07;;
62788;SDS011;66401;42.016;21.454;2023-01-20T17:12:57;9.10;;;6.50;;
62788;SDS011;66401;42.016;21.454;2023-01-20T17:15:23;7.40;;;5.80;;
62788;SDS011;66401;42.016;21.454;2023-01-20T17:17:50;8.80;;;5.67;;
62788;SDS011;66401;42.016;21.454;2023-01-20T17:20:22;7.53;;;6.07;;
62788;SDS011;66401;42.016;21.454;2023-01-20T17:22:50;7.73;;;5.67;;
62788;SDS011;66401;42.016;21.454;2023-01-20T17:25:17;7.23;;;5.70;;
62788;SDS011;66401;42.016;21.454;2023-01-20T17:27:43;11.03;;;6.33;;
62788;SDS011;66401;42.016;21.454;2023-01-20T17:30:09;7.97;;;5.50;;
62788;SDS011;66401;42.016;21.454;2023-01-20T17:32:35;10.70;;;6.27;;
62788;SDS011;66401;42.016;21.454;2023-01-20T17:35:01;10.77;;;6.07;;